createdAt,value
2018-04-12T00:02:20.019Z,15.00
2018-04-12T00:04:49.047Z,15.00
2018-04-12T00:07:17.296Z,15.00
2018-04-12T00:09:45.562Z,15.00
2018-04-12T00:12:13.811Z,15.10
2018-04-12T00:14:42.056Z,15.00
2018-04-12T00:17:10.375Z,15.00
2018-04-12T00:19:39.639Z,15.10
2018-04-12T00:22:07.887Z,15.00
2018-04-12T00:24:36.163Z,15.10
2018-04-12T00:27:04.415Z,15.00
2018-04-12T00:29:33.115Z,15.00
2018-04-12T00:32:02.156Z,14.90
2018-04-12T00:34:30.403Z,14.90
2018-04-12T00:36:58.656Z,14.90
2018-04-12T00:39:27.287Z,14.90
2018-04-12T00:41:55.668Z,14.90
2018-04-12T00:44:23.919Z,14.90
2018-04-12T00:46:52.418Z,14.90
2018-04-12T00:49:20.671Z,14.90
2018-04-12T00:51:48.911Z,14.90
2018-04-12T00:54:17.207Z,14.90
2018-04-12T00:56:46.249Z,15.00
2018-04-12T00:59:14.475Z,14.90
2018-04-12T01:01:42.819Z,15.00
2018-04-12T01:04:11.068Z,14.90
2018-04-12T01:06:39.318Z,14.90
2018-04-12T01:09:07.586Z,14.90
2018-04-12T01:11:35.830Z,14.90
2018-04-12T01:14:04.075Z,14.90
2018-04-12T01:16:32.355Z,14.80
2018-04-12T01:19:00.601Z,14.80
2018-04-12T01:21:28.852Z,14.80
2018-04-12T01:23:57.503Z,14.80
2018-04-12T01:26:25.759Z,14.90
2018-04-12T01:28:54.076Z,14.80
2018-04-12T01:31:22.615Z,14.80
2018-04-12T01:33:51.019Z,14.90
2018-04-12T01:36:19.268Z,14.80
2018-04-12T01:38:47.548Z,14.70
2018-04-12T01:41:15.790Z,14.70
2018-04-12T01:43:44.043Z,14.70
2018-04-12T01:46:12.620Z,14.50
2018-04-12T01:48:40.876Z,14.50
2018-04-12T01:51:09.124Z,14.30
2018-04-12T01:53:37.399Z,14.20
2018-04-12T01:56:06.423Z,14.10
2018-04-12T01:58:34.667Z,14.10
2018-04-12T02:01:02.947Z,14.20
2018-04-12T02:03:31.191Z,14.20
2018-04-12T02:05:59.441Z,14.10
2018-04-12T02:08:28.040Z,14.00
2018-04-12T02:10:56.292Z,13.90
2018-04-12T02:13:24.539Z,14.00
2018-04-12T02:15:52.816Z,14.10
2018-04-12T02:18:21.834Z,14.20
2018-04-12T02:20:50.088Z,14.20
2018-04-12T02:23:18.364Z,14.20
2018-04-12T02:25:46.611Z,14.20
2018-04-12T02:28:15.015Z,14.10
2018-04-12T02:30:44.131Z,14.10
2018-04-12T02:33:12.691Z,14.00
2018-04-12T02:35:41.702Z,14.10
2018-04-12T02:38:09.968Z,14.00
2018-04-12T02:40:38.488Z,14.10
2018-04-12T02:43:06.739Z,14.00
2018-04-12T02:45:35.245Z,14.00
2018-04-12T02:48:03.726Z,13.90
2018-04-12T02:50:31.978Z,13.90
2018-04-12T02:53:00.688Z,13.80
2018-04-12T02:55:28.935Z,13.90
2018-04-12T02:57:57.191Z,14.00
2018-04-12T03:00:25.464Z,13.90
2018-04-12T03:02:53.714Z,13.90
2018-04-12T03:05:22.403Z,13.90
2018-04-12T03:07:50.921Z,13.80
2018-04-12T03:10:19.935Z,13.80
2018-04-12T03:12:48.183Z,13.70
2018-04-12T03:15:17.025Z,13.80
2018-04-12T03:17:45.271Z,13.90
2018-04-12T03:20:13.601Z,13.90
2018-04-12T03:22:41.864Z,14.00
2018-04-12T03:25:10.110Z,14.00
2018-04-12T03:27:38.535Z,14.00
2018-04-12T03:30:06.808Z,14.00
2018-04-12T03:32:35.056Z,14.00
2018-04-12T03:35:03.404Z,14.00
2018-04-12T03:37:32.738Z,13.90
2018-04-12T03:40:00.987Z,13.90
2018-04-12T03:42:29.232Z,13.90
2018-04-12T03:44:57.508Z,13.90
2018-04-12T03:47:25.955Z,14.00
2018-04-12T03:49:54.212Z,14.00
2018-04-12T03:52:22.479Z,14.00
2018-04-12T03:54:50.727Z,13.90
2018-04-12T03:57:19.775Z,13.80
2018-04-12T03:59:48.153Z,13.80
2018-04-12T04:02:16.400Z,13.80
2018-04-12T04:04:44.656Z,13.80
2018-04-12T04:07:12.973Z,13.70
2018-04-12T04:09:41.173Z,13.80
2018-04-12T04:12:09.420Z,13.90
2018-04-12T04:18:01.891Z,13.90
2018-04-12T04:20:41.910Z,13.80
2018-04-12T04:23:10.155Z,13.80
2018-04-12T04:25:38.406Z,13.80
2018-04-12T04:28:06.675Z,13.70
2018-04-12T04:30:34.939Z,13.70
2018-04-12T04:33:03.263Z,13.70
2018-04-12T04:35:32.257Z,13.70
2018-04-12T04:38:00.489Z,13.60
2018-04-12T04:40:28.735Z,13.60
2018-04-12T04:42:57.003Z,13.50
2018-04-12T04:45:25.247Z,13.60
2018-04-12T04:47:53.496Z,13.60
2018-04-12T04:50:21.758Z,13.60
2018-04-12T04:52:50.011Z,13.50
2018-04-12T04:55:18.260Z,13.50
2018-04-12T04:57:46.923Z,13.50
2018-04-12T05:00:15.166Z,13.50
2018-04-12T05:02:43.420Z,13.40
2018-04-12T05:05:12.498Z,13.50
2018-04-12T05:07:40.729Z,13.40
2018-04-12T05:10:08.983Z,13.50
2018-04-12T05:12:37.260Z,13.60
2018-04-12T05:15:05.507Z,13.50
2018-04-12T05:17:33.755Z,13.40
2018-04-12T05:20:02.343Z,13.50
2018-04-12T05:22:30.587Z,13.40
2018-04-12T05:24:59.020Z,13.40
2018-04-12T05:27:27.287Z,13.30
2018-04-12T05:29:55.569Z,13.30
2018-04-12T05:32:23.805Z,13.30
2018-04-12T05:34:52.989Z,13.30
2018-04-12T05:37:21.559Z,13.30
2018-04-12T05:39:50.577Z,13.30
2018-04-12T05:42:19.000Z,13.30
2018-04-12T05:44:47.239Z,13.20
2018-04-12T05:47:15.487Z,13.20
2018-04-12T05:49:43.817Z,13.20
2018-04-12T05:52:12.051Z,13.20
2018-04-12T05:54:40.291Z,13.30
2018-04-12T05:57:08.559Z,13.30
2018-04-12T05:59:36.803Z,13.30
2018-04-12T06:02:05.071Z,13.40
2018-04-12T06:04:33.384Z,13.50
2018-04-12T06:07:01.623Z,13.50
2018-04-12T06:09:29.928Z,13.50
2018-04-12T06:11:58.183Z,13.60
2018-04-12T06:14:26.431Z,13.70
2018-04-12T06:16:54.757Z,13.80
2018-04-12T06:19:23.040Z,13.80
2018-04-12T06:21:51.295Z,13.90
2018-04-12T06:24:19.539Z,14.00
2018-04-12T06:26:48.882Z,14.20
2018-04-12T06:29:17.264Z,14.10
2018-04-12T06:31:45.507Z,14.20
2018-04-12T06:34:13.766Z,14.40
2018-04-12T06:36:42.012Z,14.40
2018-04-12T06:39:10.444Z,14.40
2018-04-12T06:41:39.530Z,14.50
2018-04-12T06:44:07.804Z,14.50
2018-04-12T06:46:36.828Z,14.50
2018-04-12T06:49:05.227Z,14.50
2018-04-12T06:51:33.460Z,14.60
2018-04-12T06:54:01.751Z,14.60
2018-04-12T06:56:30.015Z,14.50
2018-04-12T06:58:59.027Z,14.40
2018-04-12T07:01:27.266Z,14.40
2018-04-12T07:03:55.527Z,14.40
2018-04-12T07:06:23.774Z,14.40
2018-04-12T07:08:52.023Z,14.50
2018-04-12T07:11:20.480Z,14.60
2018-04-12T07:13:48.718Z,14.60
2018-04-12T07:16:16.994Z,14.60
2018-04-12T07:18:45.255Z,14.70
2018-04-12T07:21:13.503Z,14.80
2018-04-12T07:23:41.748Z,14.90
2018-04-12T07:26:10.011Z,14.90
2018-04-12T07:28:38.258Z,15.00
2018-04-12T07:31:06.636Z,15.00
2018-04-12T07:33:35.128Z,15.10
2018-04-12T07:36:03.375Z,15.00
2018-04-12T07:38:31.628Z,15.10
2018-04-12T07:41:00.572Z,15.20
2018-04-12T07:43:28.831Z,15.20
2018-04-12T07:45:57.094Z,15.30
2018-04-12T07:48:25.355Z,15.40
2018-04-12T07:50:54.368Z,15.50
2018-04-12T07:53:22.607Z,15.50
2018-04-12T07:55:51.155Z,15.60
2018-04-12T07:58:19.390Z,15.70
2018-04-12T08:00:47.639Z,15.70
2018-04-12T08:03:15.923Z,15.70
2018-04-12T08:05:44.178Z,15.80
2018-04-12T08:08:12.430Z,15.90
2018-04-12T08:10:40.706Z,16.00
2018-04-12T08:13:08.942Z,16.00
2018-04-12T08:15:37.190Z,16.00
2018-04-12T08:18:05.949Z,16.10
2018-04-12T08:20:34.191Z,16.20
2018-04-12T08:23:02.436Z,16.30
2018-04-12T08:25:30.696Z,16.40
2018-04-12T08:27:58.988Z,16.50
2018-04-12T08:30:27.223Z,16.50
2018-04-12T08:32:55.483Z,16.60
2018-04-12T08:35:23.732Z,16.70
2018-04-12T08:37:51.983Z,16.90
2018-04-12T08:40:20.543Z,16.80
2018-04-12T08:42:49.076Z,17.00
2018-04-12T08:45:18.080Z,17.20
2018-04-12T08:47:47.423Z,17.20
2018-04-12T08:50:15.667Z,17.20
2018-04-12T08:52:43.935Z,17.20
2018-04-12T08:55:12.209Z,17.30
2018-04-12T08:57:41.231Z,17.50
2018-04-12T09:00:09.538Z,17.50
2018-04-12T09:02:38.005Z,17.60
2018-04-12T09:05:06.380Z,17.60
2018-04-12T09:07:34.618Z,17.70
2018-04-12T09:10:02.880Z,17.80
2018-04-12T09:12:31.119Z,17.90
2018-04-12T09:14:59.368Z,17.90
2018-04-12T09:17:27.625Z,17.90
2018-04-12T09:19:56.635Z,18.10
2018-04-12T09:22:25.639Z,18.10
2018-04-12T09:24:53.963Z,18.10
2018-04-12T09:27:22.538Z,18.20
2018-04-12T09:29:50.767Z,18.30
2018-04-12T09:32:19.119Z,18.50
2018-04-12T09:34:48.132Z,18.80
2018-04-12T09:37:16.476Z,18.70
2018-04-12T09:39:44.743Z,18.90
2018-04-12T09:42:12.991Z,19.10
2018-04-12T09:44:41.671Z,19.30
2018-04-12T09:47:10.371Z,19.40
2018-04-12T09:49:38.727Z,19.60
2018-04-12T09:52:06.971Z,19.60
2018-04-12T09:54:35.507Z,19.70
2018-04-12T09:57:03.800Z,19.70
2018-04-12T09:59:32.078Z,19.70
2018-04-12T10:02:01.131Z,19.70
2018-04-12T10:04:29.378Z,19.90
2018-04-12T10:07:04.590Z,20.20
2018-04-12T10:09:32.811Z,20.10
2018-04-12T10:12:01.820Z,20.00
2018-04-12T10:14:30.091Z,20.00
2018-04-12T10:16:58.327Z,20.10
2018-04-12T10:19:26.585Z,19.90
2018-04-12T10:21:54.906Z,19.90
2018-04-12T10:24:23.163Z,19.80
2018-04-12T10:26:51.399Z,19.80
2018-04-12T10:29:19.971Z,19.80
2018-04-12T10:31:48.215Z,19.70
2018-04-12T10:34:17.227Z,20.20
2018-04-12T10:36:45.620Z,20.10
2018-04-12T10:39:14.613Z,20.80
2018-04-12T10:41:43.715Z,20.80
2018-04-12T10:44:11.983Z,21.30
2018-04-12T10:46:41.252Z,22.30
2018-04-12T10:49:10.268Z,24.30
2018-04-12T10:51:38.981Z,24.20
2018-04-12T10:54:07.503Z,25.00
2018-04-12T10:56:35.749Z,25.60
2018-04-12T10:59:04.541Z,26.00
2018-04-12T11:01:32.759Z,26.40
2018-04-12T11:04:01.773Z,27.80
2018-04-12T11:06:30.031Z,27.70
2018-04-12T11:08:58.273Z,27.50
2018-04-12T11:11:26.516Z,27.50
2018-04-12T11:13:55.315Z,27.40
2018-04-12T11:16:23.546Z,27.40
2018-04-12T11:18:51.804Z,27.70
2018-04-12T11:21:20.509Z,28.00
2018-04-12T11:23:49.128Z,27.90
2018-04-12T11:26:17.636Z,27.70
2018-04-12T11:28:45.892Z,27.60
2018-04-12T11:31:14.138Z,27.70
2018-04-12T11:33:42.377Z,27.20
2018-04-12T11:36:11.641Z,26.30
2018-04-12T11:38:40.023Z,26.30
2018-04-12T11:41:08.647Z,26.10
2018-04-12T11:43:37.330Z,26.00
2018-04-12T11:46:05.572Z,25.90
2018-04-12T11:48:34.103Z,25.90
2018-04-12T11:51:02.371Z,25.30
2018-04-12T11:53:32.155Z,24.70
2018-04-12T11:56:00.450Z,24.70
2018-04-12T11:58:29.464Z,24.70
2018-04-12T12:00:58.476Z,25.00
2018-04-12T12:03:27.736Z,25.00
2018-04-12T12:05:56.016Z,25.00
2018-04-12T12:08:24.260Z,24.90
2018-04-12T12:10:52.743Z,24.90
2018-04-12T12:13:21.037Z,25.00
2018-04-12T12:15:49.263Z,25.00
2018-04-12T12:18:18.076Z,25.20
2018-04-12T12:20:46.518Z,25.90
2018-04-12T12:23:15.516Z,26.60
2018-04-12T12:25:43.765Z,26.60
2018-04-12T12:28:12.171Z,26.50
2018-04-12T12:30:42.503Z,27.50
2018-04-12T12:33:11.531Z,27.40
2018-04-12T12:35:39.825Z,27.30
2018-04-12T12:38:08.068Z,27.70
2018-04-12T12:40:36.311Z,28.50
2018-04-12T12:43:05.728Z,28.60
2018-04-12T12:45:34.243Z,28.60
2018-04-12T12:48:02.485Z,28.30
2018-04-12T12:50:30.983Z,28.10
2018-04-12T12:53:04.216Z,27.80
2018-04-12T12:55:32.664Z,27.40
2018-04-12T12:58:00.898Z,27.20
2018-04-12T13:00:29.318Z,27.00
2018-04-12T13:02:58.257Z,27.00
2018-04-12T13:05:26.485Z,27.60
2018-04-12T13:07:54.743Z,28.80
2018-04-12T13:10:23.239Z,29.20
2018-04-12T13:12:52.784Z,28.40
2018-04-12T13:15:21.599Z,28.30
2018-04-12T13:17:49.939Z,28.40
2018-04-12T13:20:18.176Z,28.70
2018-04-12T13:22:46.420Z,28.70
2018-04-12T13:25:15.071Z,28.60
2018-04-12T13:27:43.311Z,28.60
2018-04-12T13:30:11.543Z,28.40
2018-04-12T13:32:39.823Z,28.10
2018-04-12T13:35:08.071Z,28.00
2018-04-12T13:37:36.319Z,27.90
2018-04-12T13:40:05.408Z,27.30
2018-04-12T13:42:33.964Z,27.30
2018-04-12T13:45:02.223Z,26.90
2018-04-12T13:47:30.917Z,26.50
2018-04-12T13:49:59.155Z,26.20
2018-04-12T13:52:28.423Z,26.00
2018-04-12T13:54:57.456Z,25.60
2018-04-12T13:57:25.839Z,25.50
2018-04-12T13:59:54.082Z,25.30
2018-04-12T14:02:22.543Z,25.10
2018-04-12T14:04:50.779Z,25.10
2018-04-12T14:07:19.011Z,25.10
2018-04-12T14:09:48.361Z,25.30
2018-04-12T14:12:16.654Z,25.30
2018-04-12T14:14:44.892Z,25.40
2018-04-12T14:17:13.336Z,25.40
2018-04-12T14:19:41.523Z,25.40
2018-04-12T14:22:10.536Z,25.30
2018-04-12T14:24:39.060Z,25.20
2018-04-12T14:27:07.318Z,25.30
2018-04-12T14:29:35.692Z,25.20
2018-04-12T14:32:04.267Z,25.10
2018-04-12T14:34:32.516Z,24.90
2018-04-12T14:37:00.931Z,24.80
2018-04-12T14:39:29.231Z,24.80
2018-04-12T14:41:57.753Z,24.80
2018-04-12T14:44:26.146Z,24.70
2018-04-12T14:47:11.547Z,24.60
2018-04-12T14:49:39.791Z,24.70
2018-04-12T14:52:08.032Z,25.10
2018-04-12T14:54:36.367Z,25.50
2018-04-12T14:57:04.606Z,25.90
2018-04-12T14:59:32.855Z,26.10
2018-04-12T15:02:01.151Z,26.20
2018-04-12T15:04:29.400Z,26.00
2018-04-12T15:06:57.993Z,26.00
2018-04-12T15:09:26.352Z,26.10
2018-04-12T15:11:54.591Z,26.40
2018-04-12T15:14:22.867Z,26.80
2018-04-12T15:16:51.919Z,27.50
2018-04-12T15:19:20.142Z,27.40
2018-04-12T15:21:48.413Z,27.60
2018-04-12T15:24:16.863Z,27.50
2018-04-12T15:26:45.115Z,27.20
2018-04-12T15:29:13.395Z,27.00
2018-04-12T15:31:41.907Z,26.90
2018-04-12T15:34:10.130Z,26.90
2018-04-12T15:36:38.367Z,26.90
2018-04-12T15:39:06.651Z,26.50
2018-04-12T15:41:35.824Z,26.40
2018-04-12T15:44:04.072Z,26.30
2018-04-12T15:46:32.380Z,26.20
2018-04-12T15:49:00.823Z,26.10
2018-04-12T15:51:29.132Z,25.90
2018-04-12T15:53:57.795Z,25.70
2018-04-12T15:56:26.032Z,25.80
2018-04-12T15:58:54.271Z,26.00
2018-04-12T16:01:22.560Z,26.30
2018-04-12T16:03:50.952Z,26.50
2018-04-12T16:06:20.000Z,26.90
2018-04-12T16:08:48.259Z,26.80
2018-04-12T16:11:16.881Z,26.80
2018-04-12T16:13:45.258Z,26.90
2018-04-12T16:16:13.567Z,27.00
2018-04-12T16:18:44.032Z,27.50
2018-04-12T16:21:12.373Z,27.90
2018-04-12T16:23:40.756Z,28.40
2018-04-12T16:26:09.775Z,28.60
2018-04-12T16:28:40.454Z,28.60
2018-04-12T16:31:08.691Z,28.20
2018-04-12T16:33:37.007Z,27.60
2018-04-12T16:36:05.596Z,27.10
2018-04-12T16:38:34.143Z,26.70
2018-04-12T16:41:02.453Z,26.40
2018-04-12T16:43:30.821Z,26.20
2018-04-12T16:45:59.572Z,26.00
2018-04-12T16:48:27.880Z,25.90
2018-04-12T16:50:56.472Z,25.80
2018-04-12T16:53:25.404Z,25.90
2018-04-12T16:55:56.630Z,27.00
2018-04-12T16:58:31.273Z,27.00
2018-04-12T17:01:00.271Z,28.40
2018-04-12T17:03:30.459Z,28.50
2018-04-12T17:05:59.219Z,28.50
2018-04-12T17:08:27.651Z,28.30
2018-04-12T17:10:57.735Z,27.20
2018-04-12T17:13:26.147Z,27.20
2018-04-12T17:15:54.518Z,26.70
2018-04-12T17:18:22.876Z,26.20
2018-04-12T17:20:51.671Z,25.90
2018-04-12T17:23:20.878Z,25.50
2018-04-12T17:25:49.240Z,25.20
2018-04-12T17:28:19.627Z,24.90
2018-04-12T17:30:49.207Z,24.70
2018-04-12T17:33:18.370Z,24.40
2018-04-12T17:35:46.956Z,24.40
2018-04-12T17:38:15.193Z,24.20
2018-04-12T17:40:44.007Z,24.10
2018-04-12T17:43:12.600Z,24.00
2018-04-12T17:45:41.091Z,23.80
2018-04-12T17:48:09.356Z,23.70
2018-04-12T17:50:40.217Z,23.50
2018-04-12T17:53:09.706Z,23.20
2018-04-12T17:55:38.104Z,22.90
2018-04-12T17:58:06.489Z,22.60
2018-04-12T18:00:35.775Z,22.40
2018-04-12T18:03:04.144Z,22.20
2018-04-12T18:05:32.923Z,21.90
2018-04-12T18:08:01.302Z,21.70
2018-04-12T18:10:29.983Z,21.50
2018-04-12T18:12:58.307Z,21.30
2018-04-12T18:15:29.568Z,20.90
2018-04-12T18:17:58.727Z,20.80
2018-04-12T18:20:27.171Z,20.80
2018-04-12T18:22:55.487Z,20.70
2018-04-12T18:25:23.856Z,20.80
2018-04-12T18:27:52.628Z,20.90
2018-04-12T18:30:20.920Z,20.70
2018-04-12T18:32:49.305Z,20.50
2018-04-12T18:35:17.715Z,20.30
2018-04-12T18:37:47.919Z,19.90
2018-04-12T18:40:16.299Z,19.80
2018-04-12T18:42:44.715Z,19.70
2018-04-12T18:45:13.723Z,19.60
2018-04-12T18:47:42.063Z,19.50
2018-04-12T18:50:10.854Z,19.70
2018-04-12T18:52:39.119Z,19.80
2018-04-12T18:55:07.990Z,19.80
2018-04-12T18:57:36.266Z,19.80
2018-04-12T19:00:04.559Z,19.60
2018-04-12T19:02:33.063Z,19.60
2018-04-12T19:05:04.091Z,19.50
2018-04-12T19:07:32.481Z,19.40
2018-04-12T19:10:00.827Z,19.50
2018-04-12T19:12:31.579Z,19.50
2018-04-12T19:14:59.803Z,19.40
2018-04-12T19:17:28.435Z,19.30
2018-04-12T19:19:56.834Z,19.10
2018-04-12T19:22:25.835Z,19.00
2018-04-12T19:24:54.839Z,18.90
2018-04-12T19:27:24.136Z,18.90
2018-04-12T19:29:53.521Z,19.00
2018-04-12T19:32:21.850Z,19.10
2018-04-12T19:34:52.437Z,19.00
2018-04-12T19:37:22.522Z,18.70
2018-04-12T19:39:50.900Z,18.70
2018-04-12T19:42:19.323Z,18.70
2018-04-12T19:44:48.342Z,18.70
2018-04-12T19:47:19.019Z,18.70
2018-04-12T19:49:48.455Z,18.60
2018-04-12T19:52:17.471Z,18.40
2018-04-12T19:54:45.784Z,18.30
2018-04-12T19:57:14.336Z,18.20
2018-04-12T19:59:43.773Z,18.10
2018-04-12T20:02:12.159Z,17.80
2018-04-12T20:04:40.560Z,17.60
2018-04-12T20:07:09.569Z,17.50
2018-04-12T20:09:38.823Z,17.50
2018-04-12T20:12:07.711Z,17.50
2018-04-12T20:14:35.927Z,17.60
2018-04-12T20:17:04.946Z,17.50
2018-04-12T20:19:35.487Z,17.50
2018-04-12T20:22:03.720Z,17.50
2018-04-12T20:24:32.168Z,17.70
2018-04-12T20:27:00.582Z,17.70
2018-04-12T20:29:30.768Z,17.40
2018-04-12T20:31:59.155Z,17.40
2018-04-12T20:34:27.570Z,17.20
2018-04-12T20:36:56.591Z,17.00
2018-04-12T20:39:24.989Z,17.00
2018-04-12T20:41:53.419Z,17.00
2018-04-12T20:44:21.668Z,16.90
2018-04-12T20:46:50.038Z,16.90
2018-04-12T20:49:18.346Z,16.80
2018-04-12T20:51:46.591Z,16.80
2018-04-12T20:54:14.834Z,16.80
2018-04-12T20:56:43.900Z,16.70
2018-04-12T20:59:12.905Z,16.60
2018-04-12T21:01:41.914Z,16.60
2018-04-12T21:04:10.432Z,16.50
2018-04-12T21:06:38.699Z,16.50
2018-04-12T21:09:07.663Z,16.60
2018-04-12T21:11:36.000Z,16.50
2018-04-12T21:14:04.223Z,16.60
2018-04-12T21:16:32.467Z,16.50
2018-04-12T21:19:02.671Z,16.40
2018-04-12T21:21:30.908Z,16.40
2018-04-12T21:24:00.335Z,16.40
2018-04-12T21:26:28.710Z,16.30
2018-04-12T21:28:57.159Z,16.30
2018-04-12T21:31:26.142Z,16.20
2018-04-12T21:33:54.402Z,16.20
2018-04-12T21:36:22.648Z,16.20
2018-04-12T21:38:50.887Z,16.20
2018-04-12T21:41:19.421Z,16.20
2018-04-12T21:43:47.651Z,16.10
2018-04-12T21:46:15.895Z,16.10
2018-04-12T21:48:44.423Z,16.00
2018-04-12T21:51:12.667Z,16.10
2018-04-12T21:53:40.908Z,16.30
2018-04-12T21:56:09.169Z,16.20
2018-04-12T21:58:37.615Z,16.00
2018-04-12T22:01:05.848Z,16.00
2018-04-12T22:03:34.118Z,15.90
2018-04-12T22:06:02.377Z,15.80
2018-04-12T22:08:30.594Z,15.80
2018-04-12T22:10:59.979Z,15.70
2018-04-12T22:13:28.259Z,15.60
2018-04-12T22:15:56.461Z,15.60
2018-04-12T22:18:24.723Z,15.60
2018-04-12T22:20:53.727Z,15.60
2018-04-12T22:23:21.962Z,15.60
2018-04-12T22:25:50.232Z,15.70
2018-04-12T22:28:18.476Z,15.80
2018-04-12T22:30:46.713Z,15.90
2018-04-12T22:33:15.330Z,15.80
2018-04-12T22:35:43.567Z,15.70
2018-04-12T22:38:11.812Z,15.60
2018-04-12T22:40:40.475Z,15.50
2018-04-12T22:43:08.714Z,15.40
2018-04-12T22:45:36.952Z,15.30
2018-04-12T22:48:05.210Z,15.20
2018-04-12T22:50:33.446Z,15.10
2018-04-12T22:53:01.689Z,15.10
2018-04-12T22:55:30.174Z,15.10
2018-04-12T22:57:58.406Z,15.00
2018-04-12T23:00:27.087Z,14.90
2018-04-12T23:02:55.521Z,14.90
2018-04-12T23:05:23.955Z,15.10
2018-04-12T23:07:52.199Z,15.20
2018-04-12T23:10:20.463Z,15.20
2018-04-12T23:12:48.695Z,15.10
2018-04-12T23:15:16.936Z,15.10
2018-04-12T23:17:45.372Z,15.00
2018-04-12T23:20:13.612Z,14.90
2018-04-12T23:22:41.851Z,14.90
2018-04-12T23:25:10.115Z,14.80
2018-04-12T23:27:38.359Z,14.80
2018-04-12T23:30:06.595Z,14.70
2018-04-12T23:32:34.873Z,14.70
2018-04-12T23:35:03.874Z,14.60
2018-04-12T23:37:32.120Z,14.60
2018-04-12T23:40:02.495Z,14.80
2018-04-12T23:42:30.739Z,14.70
2018-04-12T23:44:58.979Z,14.70
2018-04-12T23:47:27.255Z,14.70
2018-04-12T23:49:55.490Z,14.80
2018-04-12T23:52:23.793Z,14.80
2018-04-12T23:54:52.057Z,14.70
2018-04-12T23:57:20.374Z,14.60
2018-04-12T23:59:48.963Z,14.60
